Febrero 2004

Fecha / Hora Temperatura (*F) Dew Point (*F) Humedad Relativa (%)
02/01/04 00:21 43.92 39.44 84.1
02/01/04 00:51 44.65 40.28 84.5
02/01/04 01:21 42.46 38.54 85.9
02/01/04 01:51 42.46 38.54 85.9
02/01/04 02:21 41.72 37.82 85.9
02/01/04 02:51 41.72 38.06 86.7
02/01/04 03:21 40.23 36.36 85.9
02/01/04 03:51 38.72 34.88 85.9
02/01/04 04:21 38.72 35.38 87.6
02/01/04 04:51 38.72 35.26 87.2
02/01/04 05:21 38.72 35.96 89.7
02/01/04 05:51 37.2 33.98 88
02/01/04 06:21 36.43 32.86 86.7
02/01/04 06:51 37.97 34.88 88.5
02/01/04 07:21 38.72 35.86 89.3
02/01/04 07:51 41.72 37.56 85
02/01/04 08:21 45.38 37.8 74.6
02/01/04 08:51 51.79 36.3 55.3
02/01/04 09:21 55.28 34.28 44.9
02/01/04 09:51 56.66 34.4 42.9
02/01/04 10:21 58.04 33.76 39.8
02/01/04 10:51 58.04 31.48 36.3
02/01/04 11:21 59.42 29.9 32.4
02/01/04 11:51 60.8 28.4 29
02/01/04 12:21 60.8 27.2 27.6
02/01/04 12:51 62.17 25.78 24.8
02/01/04 13:21 64.22 23.88 21.3
02/01/04 13:51 62.85 28.52 27.1
02/01/04 14:21 61.48 28.22 28.1
02/01/04 14:51 62.85 29.4 28.1
02/01/04 15:21 60.8 28.4 29
02/01/04 15:51 60.8 28.8 29.5
02/01/04 16:21 60.11 30.12 31.9
02/01/04 16:51 58.04 30.8 35.3
02/01/04 17:21 55.97 32.22 40.3
02/01/04 17:51 54.58 33.08 43.9
02/01/04 18:21 53.89 32.74 44.4
02/01/04 18:51 53.19 31.82 43.9
02/01/04 19:21 52.49 31.2 43.9
02/01/04 19:51 52.49 32.02 45.4
02/01/04 20:21 51.79 31.66 45.9
02/01/04 20:51 51.08 32.12 48
02/01/04 21:21 51.08 30.74 45.4
02/01/04 21:51 49.67 28.36 43.4
02/01/04 22:21 47.53 26.42 43.4
02/01/04 22:51 46.82 25.16 42.3
02/01/04 23:21 46.1 23.94 41.3
02/01/04 23:51 44.65 24.08 43.9
02/02/04 00:21 43.92 23.42 43.9
02/02/04 00:51 45.38 23.56 41.8
02/02/04 01:21 43.92 23.42 43.9
02/02/04 01:51 41.72 23.28 47.5
02/02/04 02:21 41.72 23.28 47.5
02/02/04 02:51 41.72 23.52 48
02/02/04 03:21 41.72 24.26 49.5
02/02/04 03:51 41.72 24 49
02/02/04 04:21 40.97 23.56 49.5
02/02/04 04:51 40.97 23.86 50.1
02/02/04 05:21 42.46 22.08 43.9
02/02/04 05:51 46.82 22.48 37.8
02/02/04 06:21 47.53 22.48 36.8
02/02/04 06:51 45.38 22.7 40.3
02/02/04 07:21 44.65 23.2 42.3
02/02/04 07:51 51.08 21.48 30.9
02/02/04 08:21 53.19 22.22 29.5
02/02/04 08:51 55.28 19.94 24.8
02/02/04 09:21 57.35 18.58 21.7
02/02/04 09:51 58.73 22.88 24.8
02/02/04 10:21 60.8 25.94 26.2
02/02/04 10:51 62.17 25.78 24.8
02/02/04 11:21 63.54 26.56 24.4
02/02/04 11:51 67.65 26.72 21.3
02/02/04 12:21 67.65 24.6 19.5
02/02/04 12:51 66.96 25.58 20.8
02/02/04 13:21 67.65 25.2 20
02/02/04 13:51 69.71 23.02 17
02/02/04 14:21 68.33 23.12 17.9
02/02/04 14:51 66.28 27.96 23.5
02/02/04 15:21 64.91 28.1 24.8
02/02/04 15:51 63.54 29.98 28.1
02/02/04 16:21 62.17 31.92 31.9
02/02/04 16:51 59.42 30.94 33.8
02/02/04 17:21 58.04 30.44 34.8
02/02/04 17:51 56.66 30.26 36.3
02/02/04 18:21 55.28 30.34 38.3
02/02/04 18:51 53.89 30.34 40.3
02/02/04 19:21 52.49 29.4 40.8
02/02/04 19:51 51.08 28.42 41.3
02/02/04 20:21 50.38 28.38 42.3
02/02/04 20:51 49.67 28.36 43.4
02/02/04 21:21 49.67 28.9 44.4
02/02/04 21:51 48.96 28.26 44.4
02/02/04 22:21 48.96 29.34 46.4
02/02/04 22:51 47.53 28.86 48
02/02/04 23:21 46.82 28.96 49.5
02/02/04 23:51 46.82 30.94 53.7
02/03/04 00:21 47.53 32.34 55.3
02/03/04 00:51 46.1 31.66 56.8
02/03/04 01:21 44.65 31.4 59.4
02/03/04 01:51 45.38 34.18 64.6
02/03/04 02:21 44.65 37.9 77
02/03/04 02:51 43.92 39.98 85.9
02/03/04 03:21 44.65 41.58 88.9
02/03/04 03:51 44.65 41.32 88
02/03/04 04:21 45.38 41.14 85
02/03/04 04:51 46.1 42.24 86.3
02/03/04 05:21 46.82 43.08 86.7
02/03/04 05:51 46.82 43.34 87.6
02/03/04 06:21 47.53 44.92 90.6
02/03/04 06:51 46.82 45.02 93.4
02/03/04 07:21 47.53 45.96 94.2
02/03/04 07:51 48.96 46.22 90.2
02/03/04 08:21 49.67 45.36 85
02/03/04 08:51 50.38 43.96 78.5
02/03/04 09:21 52.49 43.04 70.1
02/03/04 09:51 53.19 41.78 65.1
02/03/04 10:21 53.89 40.08 59.4
02/03/04 10:51 56.66 38.82 51.1
02/03/04 11:21 56.66 35.26 44.4
02/03/04 11:51 58.04 29.08 32.9
02/03/04 12:21 58.04 30.1 34.3
02/03/04 12:51 60.11 31.54 33.8
02/03/04 13:21 60.8 31.78 33.3
02/03/04 13:51 60.11 29.74 31.4
02/03/04 14:21 59.42 31.3 34.3
02/03/04 14:51 58.73 32.76 37.3
02/03/04 15:21 58.73 32.76 37.3
02/03/04 15:51 58.04 34.38 40.8
02/03/04 16:21 55.97 37.92 50.6
02/03/04 16:51 54.58 38.4 54.2
02/03/04 17:21 53.19 38.78 57.9
02/03/04 17:51 51.79 38.54 60.4
02/03/04 18:21 50.38 39.9 67.1
02/03/04 18:51 50.38 40.46 68.6
02/03/04 19:21 49.67 41.6 73.6
02/03/04 19:51 48.25 40.92 75.6
02/03/04 20:21 48.25 40.4 74.1
02/03/04 20:51 47.53 39.36 73.1
02/03/04 21:21 47.53 39.72 74.1
02/03/04 21:51 46.82 39.54 75.6
02/03/04 22:21 46.82 39.88 76.6
02/03/04 22:51 46.82 40.34 78
02/03/04 23:21 46.82 39.54 75.6
02/03/04 23:51 46.1 40.26 79.9
02/04/04 00:21 45.38 39.4 79.4
02/04/04 00:51 45.38 39.72 80.4
02/04/04 01:21 44.65 39.44 81.8
02/04/04 01:51 43.92 38.74 81.8
02/04/04 02:21 43.92 38.86 82.2
02/04/04 02:51 43.19 38.58 83.6
02/04/04 03:21 41.72 37.4 84.5
02/04/04 03:51 42.46 38.28 85
02/04/04 04:21 42.46 38.54 85.9
02/04/04 04:51 41.72 37.56 85
02/04/04 05:21 43.19 38.58 83.6
02/04/04 05:51 43.92 38.86 82.2
02/04/04 06:21 43.92 38.86 82.2
02/04/04 06:51 43.92 39.16 83.2
02/04/04 07:21 44.65 39.44 81.8
02/04/04 07:51 46.1 39.3 77
02/04/04 08:21 48.25 38.06 67.6
02/04/04 08:51 50.38 37 59.9
02/04/04 09:21 51.79 36.3 55.3
02/04/04 09:51 52.49 36.96 55.3
02/04/04 10:21 53.89 36 50.6
02/04/04 10:51 55.28 35.7 47.5
02/04/04 11:21 56.66 35.54 44.9
02/04/04 11:51 55.28 35.7 47.5
02/04/04 12:21 56.66 36.36 46.4
02/04/04 12:51 56.66 36.1 45.9
02/04/04 13:21 58.73 33.76 38.8
02/04/04 13:51 58.73 35.32 41.3
02/04/04 14:21 58.04 35.64 42.9
02/04/04 14:51 57.35 36.16 44.9
02/04/04 15:21 56.66 36.96 47.5
02/04/04 15:51 57.35 37 46.4
02/04/04 16:21 57.35 37.32 47
02/04/04 16:51 55.97 38.68 52.1
02/04/04 17:21 53.89 39.44 57.9
02/04/04 17:51 52.49 39.66 61.5
02/04/04 18:21 51.79 40.26 64.6
02/04/04 18:51 50.38 39.9 67.1
02/04/04 19:21 49.67 40.56 70.7
02/04/04 19:51 48.96 41.08 74.1
02/04/04 20:21 48.25 41.4 77
02/04/04 20:51 47.53 41.82 80.4
02/04/04 21:21 47.53 42.1 81.3
02/04/04 21:51 47.53 42.1 81.3
02/04/04 22:21 46.1 40.98 82.2
02/04/04 22:51 45.38 40.16 81.8
02/04/04 23:21 44.65 40.28 84.5
02/04/04 23:51 43.19 38.58 83.6
02/05/04 00:21 42.46 38.66 86.3
02/05/04 00:51 41.72 38.32 87.6
02/05/04 01:21 41.72 38.8 89.3
02/05/04 01:51 41.72 38.8 89.3
02/05/04 02:21 41.72 39.06 90.2
02/05/04 02:51 42.46 39.66 89.7
02/05/04 03:21 40.97 38.18 89.7
02/05/04 03:51 40.23 37.82 91
02/05/04 04:21 38.72 36.1 90.2
02/05/04 04:51 37.97 35.1 89.3
02/05/04 05:21 38.72 36.22 90.6
02/05/04 05:51 37.97 35.1 89.3
02/05/04 06:21 37.2 34.46 89.7
02/05/04 06:51 36.43 33.7 89.7
02/05/04 07:21 37.97 35.58 91
02/05/04 07:51 43.19 38.3 82.7
02/05/04 08:21 47.53 37.18 67.1
02/05/04 08:51 53.19 31.82 43.9
02/05/04 09:21 55.28 31.28 39.8
02/05/04 09:51 55.97 28.62 34.8
02/05/04 10:21 57.35 28.76 33.3
02/05/04 10:51 58.73 29.3 32.4
02/05/04 11:21 59.42 27.2 29
02/05/04 11:51 60.8 25.94 26.2
02/05/04 12:21 62.17 26.26 25.3
02/05/04 12:51 62.85 25.48 23.9
02/05/04 13:21 64.91 24.44 21.3
02/05/04 13:51 65.59 23.98 20.4
02/05/04 14:21 64.22 25.28 22.6
02/05/04 14:51 64.91 25.32 22.1
02/05/04 15:21 64.91 22.34 19.5
02/05/04 15:51 62.17 31.92 31.9
02/05/04 16:21 58.73 33.76 38.8
02/05/04 16:51 57.35 32.52 38.8
02/05/04 17:21 55.28 30.34 38.3
02/05/04 17:51 53.89 30.66 40.8
02/05/04 18:21 53.19 30.62 41.8
02/05/04 18:51 53.19 30.02 40.8
02/05/04 19:21 53.19 25.1 33.3
02/05/04 19:51 52.49 23.46 31.9
02/05/04 20:21 54.58 20.64 26.2
02/05/04 20:51 53.89 22.82 29.5
02/05/04 21:21 53.89 24.32 31.4
02/05/04 21:51 53.89 20.48 26.7
02/05/04 22:21 53.89 18.38 24.4
02/05/04 22:51 53.19 17.78 24.4
02/05/04 23:21 53.19 13.68 20.4
02/05/04 23:51 53.19 13.24 20
02/06/04 00:21 52.49 13.1 20.4
02/06/04 00:51 53.19 13.24 20
02/06/04 01:21 52.49 12.66 20
02/06/04 01:51 52.49 12.66 20
02/06/04 02:21 51.79 12.52 20.4
02/06/04 02:51 51.79 13.5 21.3
02/06/04 03:21 51.79 13.92 21.7
02/06/04 03:51 51.79 14.34 22.1
02/06/04 04:21 51.08 14.66 23
02/06/04 04:51 51.08 15.52 23.9
02/06/04 05:21 50.38 16.24 25.3
02/06/04 05:51 49.67 16.86 26.7
02/06/04 06:21 49.67 17.62 27.6
02/06/04 06:51 48.96 17.44 28.1
02/06/04 07:21 50.38 18.66 28.1
02/06/04 07:51 51.79 19.02 27.1
02/06/04 08:21 52.49 19.28 26.7
02/06/04 08:51 53.89 20.04 26.2
02/06/04 09:21 55.28 20.78 25.7
02/06/04 09:51 55.28 21.66 26.7
02/06/04 10:21 55.97 23.04 27.6
02/06/04 10:51 56.66 23.2 27.1
02/06/04 11:21 57.35 23.8 27.1
02/06/04 11:51 58.04 24.04 26.7
02/06/04 12:21 58.73 23.72 25.7
02/06/04 12:51 58.73 22.48 24.4
02/06/04 13:21 59.42 21.26 22.6
02/06/04 13:51 59.42 21.68 23
02/06/04 14:21 58.73 22.48 24.4
02/06/04 14:51 58.73 22 23.9
02/06/04 15:21 58.04 21.9 24.4
02/06/04 15:51 57.35 22.18 25.3
02/06/04 16:21 56.66 21.58 25.3
02/06/04 16:51 55.28 20.78 25.7
02/06/04 17:21 53.89 21.26 27.6
02/06/04 17:51 53.19 21.4 28.5
02/06/04 18:21 53.19 21.82 29
02/06/04 18:51 52.49 20.48 28.1
02/06/04 19:21 53.19 22.22 29.5
02/06/04 19:51 52.49 20.48 28.1
02/06/04 20:21 52.49 19.28 26.7
02/06/04 20:51 52.49 20.48 28.1
02/06/04 21:21 51.79 21 29.5
02/06/04 21:51 51.79 20.6 29
02/06/04 22:21 51.08 19.6 28.5
02/06/04 22:51 51.08 19.26 28.1
02/06/04 23:21 51.08 17.64 26.2
02/06/04 23:51 49.67 16.86 26.7
02/07/04 00:21 51.08 16 24.4
02/07/04 00:51 51.79 15.24 23
02/07/04 01:21 51.79 14.34 22.1
02/07/04 01:51 52.49 14.5 21.7
02/07/04 02:21 51.79 13.5 21.3
02/07/04 02:51 51.08 13.74 22.1
02/07/04 03:21 49.67 13.94 23.5
02/07/04 03:51 48.96 13.34 23.5
02/07/04 04:21 48.96 13.72 23.9
02/07/04 04:51 48.96 13.34 23.5
02/07/04 05:21 47.53 12.52 23.9
02/07/04 05:51 47.53 13.8 25.3
02/07/04 06:21 43.92 13.4 28.5
02/07/04 06:51 42.46 13.58 30.4
02/07/04 07:21 43.92 13.8 29
02/07/04 07:51 50.38 13.16 22.1
02/07/04 08:21 53.89 12.3 18.7
02/07/04 08:51 55.97 12.52 17.5
02/07/04 09:21 58.04 11.32 15.4
02/07/04 09:51 60.11 11.78 14.6
02/07/04 10:21 60.8 8.7 12.4
02/07/04 10:51 63.54 9.36 11.6
02/07/04 11:21 64.91 8.22 10.5
02/07/04 11:51 67.65 8.1 9.5
02/07/04 12:21 69.02 9.84 9.8
02/07/04 12:51 70.39 7.72 8.5
02/07/04 13:21 73.15 6.12 7.2
02/07/04 13:51 75.22 3.32 5.9
02/07/04 14:21 75.22 3.32 5.9
02/07/04 14:51 75.22 10.26 8.1
02/07/04 15:21 74.53 9.74 8.1
02/07/04 15:51 74.53 9.74 8.1
02/07/04 16:21 74.53 8.9 7.8
02/07/04 16:51 71.77 17.28 12.4
02/07/04 17:21 67.65 18.42 15
02/07/04 17:51 64.91 20.86 18.3
02/07/04 18:21 61.48 19.04 19.1
02/07/04 18:51 58.73 18.3 20.4
02/07/04 19:21 57.35 18.14 21.3
02/07/04 19:51 59.42 15.86 17.9
02/07/04 20:21 58.73 15.28 17.9
02/07/04 20:51 58.04 16.2 19.1
02/07/04 21:21 55.97 17.42 21.7
02/07/04 21:51 55.28 15.88 20.8
02/07/04 22:21 55.28 13.92 19.1
02/07/04 22:51 56.66 10.78 15.8
02/07/04 23:21 57.35 6.52 12.7
02/07/04 23:51 56.66 11.34 16.2
02/08/04 00:21 57.35 9.58 14.6
02/08/04 00:51 57.35 9.58 14.6
02/08/04 01:21 56.66 13.08 17.5
02/08/04 01:51 56.66 13.6 17.9
02/08/04 02:21 55.97 13.52 18.3
02/08/04 02:51 56.66 13.6 17.9
02/08/04 03:21 56.66 14.58 18.7
02/08/04 03:51 55.97 13.52 18.3
02/08/04 04:21 55.97 13.52 18.3
02/08/04 04:51 55.28 13.92 19.1
02/08/04 05:21 55.28 12.46 17.9
02/08/04 05:51 55.28 12.46 17.9
02/08/04 06:21 55.28 12.46 17.9
02/08/04 06:51 54.58 10.74 17
02/08/04 07:21 54.58 9.66 16.2
02/08/04 07:51 55.28 9.1 15.4
02/08/04 08:21 55.28 10.76 16.6
02/08/04 08:51 57.35 11.34 15.8
02/08/04 09:21 58.04 12.46 16.2
02/08/04 09:51 58.04 12.46 16.2
02/08/04 10:21 57.35 10.18 15
02/08/04 10:51 58.04 12.46 16.2
02/08/04 11:21 58.73 10.68 14.6
02/08/04 11:51 60.11 12.4 15
02/08/04 12:21 60.8 13.54 15.4
02/08/04 12:51 60.11 12.4 15
02/08/04 13:21 60.8 10.58 13.5
02/08/04 13:51 60.8 13.54 15.4
02/08/04 14:21 59.42 13.58 16.2
02/08/04 14:51 59.42 16.86 18.7
02/08/04 15:21 58.04 16.68 19.5
02/08/04 15:51 57.35 17.16 20.4
02/08/04 16:21 55.97 16.44 20.8
02/08/04 16:51 54.58 19.82 25.3
02/08/04 17:21 53.19 20.66 27.6
02/08/04 17:51 52.49 19.62 27.1
02/08/04 18:21 52.49 18.4 25.7
02/08/04 18:51 52.49 16.72 23.9
02/08/04 19:21 52.49 15.84 23
02/08/04 19:51 52.49 15.84 23
02/08/04 20:21 52.49 14.08 21.3
02/08/04 20:51 51.79 13.5 21.3
02/08/04 21:21 52.49 13.54 20.8
02/08/04 21:51 51.79 12.08 20
02/08/04 22:21 51.79 12.08 20
02/08/04 22:51 51.79 12.08 20
02/08/04 23:21 51.79 11.04 19.1
02/08/04 23:51 51.79 11.04 19.1
02/09/04 00:21 51.08 10.92 19.5
02/09/04 00:51 51.08 10 18.7
02/09/04 01:21 50.38 9.88 19.1
02/09/04 01:51 49.67 9.76 19.5
02/09/04 02:21 48.96 11.14 21.3
02/09/04 02:51 48.96 10.18 20.4
02/09/04 03:21 48.25 10.96 21.7
02/09/04 03:51 49.67 9.76 19.5
02/09/04 04:21 50.38 9.88 19.1
02/09/04 04:51 49.67 10.32 20
02/09/04 05:21 48.25 10.54 21.3
02/09/04 05:51 48.25 10.96 21.7
02/09/04 06:21 50.38 10.9 20
02/09/04 06:51 49.67 10.32 20
02/09/04 07:21 50.38 9.88 19.1
02/09/04 07:51 51.79 9.6 17.9
02/09/04 08:21 53.19 8.54 16.2
02/09/04 08:51 54.58 9.66 16.2
02/09/04 09:21 55.28 8.52 15
02/09/04 09:51 55.97 9.08 15
02/09/04 10:21 57.35 10.18 15
02/09/04 10:51 58.73 10.22 14.3
02/09/04 11:21 60.11 8.68 12.7
02/09/04 11:51 60.11 9.36 13.1
02/09/04 12:21 60.8 7.96 12
02/09/04 12:51 62.85 8.82 11.6
02/09/04 13:21 63.54 9.36 11.6
02/09/04 13:51 64.91 9.04 10.9
02/09/04 14:21 63.54 12.08 13.1
02/09/04 14:51 63.54 14.52 14.6
02/09/04 15:21 61.48 17.54 17.9
02/09/04 15:51 61.48 14.68 15.8
02/09/04 16:21 60.8 15.8 17
02/09/04 16:51 58.04 20.1 22.6
02/09/04 17:21 55.28 20.78 25.7
02/09/04 17:51 53.89 24.32 31.4
02/09/04 18:21 52.49 26.56 36.3
02/09/04 18:51 51.79 25.6 35.8
02/09/04 19:21 51.08 22.6 32.4
02/09/04 19:51 50.38 20.18 30
02/09/04 20:21 51.08 13.74 22.1
02/09/04 20:51 51.79 12.52 20.4
02/09/04 21:21 51.79 12.08 20
02/09/04 21:51 51.79 11.52 19.5
02/09/04 22:21 48.96 12.86 23
02/09/04 22:51 46.82 13.2 25.3
02/09/04 23:21 44.65 12.12 26.2
02/09/04 23:51 44.65 12.12 26.2
02/10/04 00:21 46.1 11.76 24.4
02/10/04 00:51 50.38 12.74 21.7
02/10/04 01:21 50.38 14.06 23
02/10/04 01:51 50.38 15.4 24.4
02/10/04 02:21 50.38 16.24 25.3
02/10/04 02:51 50.38 16.24 25.3
02/10/04 03:21 50.38 14.94 23.9
02/10/04 03:51 49.67 15.62 25.3
02/10/04 04:21 48.96 14.56 24.8
02/10/04 04:51 49.67 13.94 23.5
02/10/04 05:21 48.96 12.86 23
02/10/04 05:51 49.67 13.06 22.6
02/10/04 06:21 49.67 12.56 22.1
02/10/04 06:51 48.96 12.46 22.6
02/10/04 07:21 49.67 13.06 22.6
02/10/04 07:51 51.08 12.92 21.3
02/10/04 08:21 52.49 13.1 20.4
02/10/04 08:51 53.19 13.24 20
02/10/04 09:21 53.89 14.72 20.8
02/10/04 09:51 54.58 15.84 21.3
02/10/04 10:21 55.28 15.42 20.4
02/10/04 10:51 57.35 16.12 19.5
02/10/04 11:21 57.35 18.14 21.3
02/10/04 11:51 58.04 19.16 21.7
02/10/04 12:21 58.73 19.74 21.7
02/10/04 12:51 59.42 16.36 18.3
02/10/04 13:21 60.11 16.42 17.9
02/10/04 13:51 59.42 17.34 19.1
02/10/04 14:21 60.11 20.44 21.3
02/10/04 14:51 59.42 20.3 21.7
02/10/04 15:21 58.04 21.9 24.4
02/10/04 15:51 57.35 23 26.2
02/10/04 16:21 55.97 25.36 30.4
02/10/04 16:51 54.58 23.42 29.5
02/10/04 17:21 53.19 24.82 32.9
02/10/04 17:51 51.79 25.26 35.3
02/10/04 18:21 51.79 22.48 31.4
02/10/04 18:51 52.49 20.06 27.6
02/10/04 19:21 52.49 20.48 28.1
02/10/04 19:51 51.79 19.86 28.1
02/10/04 20:21 51.79 20.6 29
02/10/04 20:51 51.08 19.6 28.5
02/10/04 21:21 51.08 17.2 25.7
02/10/04 21:51 50.38 18.24 27.6
02/10/04 22:21 49.67 17.2 27.1
02/10/04 22:51 51.79 15.74 23.5
02/10/04 23:21 51.79 14.84 22.6
02/10/04 23:51 51.79 14.84 22.6
02/11/04 00:21 50.38 14.06 23
02/11/04 00:51 51.79 13.5 21.3
02/11/04 01:21 51.08 13.34 21.7
02/11/04 01:51 51.08 12.38 20.8
02/11/04 02:21 50.38 12.74 21.7
02/11/04 02:51 47.53 12.98 24.4
02/11/04 03:21 48.96 11.96 22.1
02/11/04 03:51 49.67 11.72 21.3
02/11/04 04:21 48.25 11.86 22.6
02/11/04 04:51 46.1 11.76 24.4
02/11/04 05:21 44.65 11.34 25.3
02/11/04 05:51 44.65 11.7 25.7
02/11/04 06:21 44.65 11.7 25.7
02/11/04 06:51 42.46 12.9 29.5
02/11/04 07:21 44.65 11.7 25.7
02/11/04 07:51 51.08 11.94 20.4
02/11/04 08:21 53.89 9.64 16.6
02/11/04 08:51 55.97 9.66 15.4
02/11/04 09:21 57.35 9.12 14.3
02/11/04 09:51 58.73 9.6 13.9
02/11/04 10:21 60.11 8.68 12.7
02/11/04 10:51 62.17 9.04 12
02/11/04 11:21 63.54 6.52 10.2
02/11/04 11:51 64.91 6.02 9.5
02/11/04 12:21 66.96 9.14 10.2
02/11/04 12:51 68.33 10.2 10.2
02/11/04 13:21 68.33 10.2 10.2
02/11/04 13:51 66.96 9.14 10.2
02/11/04 14:21 66.28 10.9 11.3
02/11/04 14:51 65.59 10.96 11.6
02/11/04 15:21 64.91 11.92 12.4
02/11/04 15:51 63.54 14.06 14.3
02/11/04 16:21 62.17 14.04 15
02/11/04 16:51 59.42 13.58 16.2
02/11/04 17:21 58.04 14.22 17.5
02/11/04 17:51 56.66 14.1 18.3
02/11/04 18:21 55.28 13.92 19.1
02/11/04 18:51 54.58 14.4 20
02/11/04 19:21 53.89 14.28 20.4
02/11/04 19:51 52.49 14.08 21.3
02/11/04 20:21 51.08 13.34 21.7
02/11/04 20:51 50.38 12.32 21.3
02/11/04 21:21 48.96 11.14 21.3
02/11/04 21:51 48.25 10.96 21.7
02/11/04 22:21 46.82 10.16 22.1
02/11/04 22:51 45.38 8.94 22.1
02/11/04 23:21 45.38 8.54 21.7
02/11/04 23:51 43.92 8.22 22.6
02/12/04 00:21 43.92 7.32 21.7
02/12/04 00:51 42.46 7.84 23.5
02/12/04 01:21 41.72 7.58 23.9
02/12/04 01:51 43.19 7.6 22.6
02/12/04 02:21 42.46 8.2 23.9
02/12/04 02:51 40.97 7.76 24.8
02/12/04 03:21 40.23 8.34 26.2
02/12/04 03:51 40.97 9.72 27.1
02/12/04 04:21 45.38 9.84 23
02/12/04 04:51 49.67 10.32 20
02/12/04 05:21 53.19 9.08 16.6
02/12/04 05:51 53.89 9.64 16.6
02/12/04 06:21 53.19 8.54 16.2
02/12/04 06:51 53.19 9.08 16.6
02/12/04 07:21 53.89 9.1 16.2
02/12/04 07:51 55.28 10.22 16.2
02/12/04 08:21 55.97 9.08 15
02/12/04 08:51 57.35 10.18 15
02/12/04 09:21 58.04 9.68 14.3
02/12/04 09:51 58.73 10.68 14.6
02/12/04 10:21 58.73 15.28 17.9
02/12/04 10:51 58.73 15.8 18.3
02/12/04 11:21 59.42 17.82 19.5
02/12/04 11:51 60.11 17.9 19.1
02/12/04 12:21 60.11 17.9 19.1
02/12/04 12:51 60.11 18.98 20
02/12/04 13:21 60.8 15.8 17
02/12/04 13:51 60.11 16.92 18.3
02/12/04 14:21 59.42 16.36 18.3
02/12/04 14:51 60.11 16.92 18.3
02/12/04 15:21 58.73 17.26 19.5
02/12/04 15:51 58.04 19.58 22.1
02/12/04 16:21 56.66 20.74 24.4
02/12/04 16:51 54.58 19.34 24.8
02/12/04 17:21 53.19 22.62 30
02/12/04 17:51 51.79 22.48 31.4
02/12/04 18:21 51.08 22.96 32.9
02/12/04 18:51 51.08 23.6 33.8
02/12/04 19:21 50.38 21.98 32.4
02/12/04 19:51 50.38 17.48 26.7
02/12/04 20:21 50.38 15.4 24.4
02/12/04 20:51 50.38 18.24 27.6
02/12/04 21:21 50.38 14.94 23.9
02/12/04 21:51 49.67 10.76 20.4
02/12/04 22:21 49.67 4 15
02/12/04 22:51 49.67 -0.76 12
02/12/04 23:21 49.67 -2.76 10.9
02/12/04 23:51 48.96 -5.52 9.8
02/13/04 00:21 49.67 -7.9 8.5
02/13/04 00:51 49.67 -9.64 7.8
02/13/04 01:21 48.96 -8.42 8.5
02/13/04 01:51 48.25 -4.64 10.5
02/13/04 02:21 48.96 -6.16 9.5
02/13/04 02:51 48.25 -3.88 10.9
02/13/04 03:21 48.25 -6.08 9.8
02/13/04 03:51 48.96 -7.04 9.1
02/13/04 04:21 48.25 -9.94 8.1
02/13/04 04:51 47.53 -7.26 9.5
02/13/04 05:21 46.82 -6.36 10.2
02/13/04 05:51 46.82 -7.18 9.8
02/13/04 06:21 46.1 -6.92 10.2
02/13/04 06:51 46.1 -6.32 10.5
02/13/04 07:21 47.53 -6.62 9.8
02/13/04 07:51 48.96 -6.16 9.5
02/13/04 08:21 50.38 -6.64 8.8
02/13/04 08:51 51.08 -6.12 8.8
02/13/04 09:21 52.49 -7.52 7.8
02/13/04 09:51 53.19 -4.52 8.8
02/13/04 10:21 53.89 -0.28 10.5
02/13/04 10:51 53.89 1.28 11.3
02/13/04 11:21 55.28 4.36 12.4
02/13/04 11:51 55.97 8.48 14.6
02/13/04 12:21 55.97 11.34 16.6
02/13/04 12:51 56.66 10.78 15.8
02/13/04 13:21 57.35 9.12 14.3
02/13/04 13:51 57.35 12.46 16.6
02/13/04 14:21 56.66 12.44 17
02/13/04 14:51 57.35 12.46 16.6
02/13/04 15:21 56.66 14.58 18.7
02/13/04 15:51 56.66 17.02 20.8
02/13/04 16:21 54.58 17.6 23
02/13/04 16:51 51.79 17.44 25.3
02/13/04 17:21 51.08 18.08 26.7
02/13/04 17:51 49.67 17.62 27.6
02/13/04 18:21 48.25 17.94 29.5
02/13/04 18:51 48.25 15.98 27.1
02/13/04 19:21 48.96 11.14 21.3
02/13/04 19:51 48.96 8.72 19.1
02/13/04 20:21 48.96 6.78 17.5
02/13/04 20:51 48.96 8.72 19.1
02/13/04 21:21 47.53 6.6 18.3
02/13/04 21:51 47.53 8.54 20
02/13/04 22:21 46.1 14.96 28.1
02/13/04 22:51 44.65 13.3 27.6
02/13/04 23:21 43.19 13.16 29
02/13/04 23:51 42.46 12.9 29.5
02/14/04 00:21 42.46 11.82 28.1
02/14/04 00:51 40.97 9.4 26.7
02/14/04 01:21 41.72 8.84 25.3
02/14/04 01:51 41.72 8.04 24.4
02/14/04 02:21 41.72 9.18 25.7
02/14/04 02:51 42.46 9.02 24.8
02/14/04 03:21 40.97 8.2 25.3
02/14/04 03:51 40.23 6.32 23.9
02/14/04 04:21 43.19 1.44 17
02/14/04 04:51 40.23 1.92 19.5
02/14/04 05:21 39.48 0.86 19.1
02/14/04 05:51 38.72 -1.14 17.9
02/14/04 06:21 37.97 -0.84 18.7
02/14/04 06:51 38.72 -1.62 17.5
02/14/04 07:21 41.72 -1.86 15.4
02/14/04 07:51 48.25 -3.12 11.3
02/14/04 08:21 51.08 -5.42 9.1
02/14/04 08:51 53.89 -8.1 7.2
02/14/04 09:21 55.97 -9.58 6.2
02/14/04 09:51 57.35 -11.74 5.3
02/14/04 10:21 60.11 -10.92 5
02/14/04 10:51 61.48 -19.32 3.1
02/14/04 11:21 63.54 -10.6 4.5
02/14/04 11:51 66.28 -11.56 3.9
02/14/04 12:21 66.28 -10.08 4.2
02/14/04 12:51 66.96 -6.06 5
02/14/04 13:21 66.96 -2.62 5.9
02/14/04 13:51 66.28 6.12 9.1
02/14/04 14:21 67.65 11.96 11.3
02/14/04 14:51 69.02 14.38 12
02/14/04 15:21 68.33 14.6 12.4
02/14/04 15:51 67.65 11.96 11.3
02/14/04 16:21 66.96 17.88 15
02/14/04 16:51 64.22 8.52 10.9
02/14/04 17:21 60.8 4.42 10.2
02/14/04 17:51 58.73 5.04 11.3
02/14/04 18:21 57.35 4.54 11.6
02/14/04 18:51 56.66 3.44 11.3
02/14/04 19:21 55.97 4.2 12
02/14/04 19:51 55.28 2.92 11.6
02/14/04 20:21 54.58 1.04 10.9
02/14/04 20:51 53.19 1.28 11.6
02/14/04 21:21 51.79 -1.12 10.9
02/14/04 21:51 50.38 -0.2 12
02/14/04 22:21 48.96 -2.56 11.3
02/14/04 22:51 47.53 -1.74 12.4
02/14/04 23:21 48.25 -1.86 12
02/14/04 23:51 47.53 -1.74 12.4
02/15/04 00:21 48.96 -4.1 10.5
02/15/04 00:51 46.1 -2.88 12.4
02/15/04 01:21 45.38 -3.46 12.4
02/15/04 01:51 48.25 1.84 14.3
02/15/04 02:21 46.1 -1.1 13.5
02/15/04 02:51 44.65 -1.04 14.3
02/15/04 03:21 43.19 0.92 16.6
02/15/04 03:51 46.1 3.82 17
02/15/04 04:21 48.96 2.86 14.6
02/15/04 04:51 49.67 -0.06 12.4
02/15/04 05:21 45.38 0.54 15
02/15/04 05:51 43.19 0.92 16.6
02/15/04 06:21 43.19 2.06 17.5
02/15/04 06:51 43.19 2.06 17.5
02/15/04 07:21 45.38 3.84 17.5
02/15/04 07:51 50.38 8.94 18.3
02/15/04 08:21 55.28 6.2 13.5
02/15/04 08:51 60.11 15.24 17
02/15/04 09:21 62.17 18.1 17.9
02/15/04 09:51 64.22 18.02 16.6
02/15/04 10:21 64.91 20.86 18.3
02/15/04 10:51 66.96 20.8 17
02/15/04 11:21 69.02 18.9 14.6
02/15/04 11:51 69.71 16.22 12.7
02/15/04 12:21 71.08 16.74 12.4
02/15/04 12:51 73.15 16.82 11.6
02/15/04 13:21 75.22 15.46 10.2
02/15/04 13:51 74.53 16.44 10.9
02/15/04 14:21 72.46 14.86 10.9
02/15/04 14:51 73.15 15.38 10.9
02/15/04 15:21 72.46 15.68 11.3
02/15/04 15:51 72.46 16.28 11.6
02/15/04 16:21 71.08 16.74 12.4
02/15/04 16:51 68.33 17.22 13.9
02/15/04 17:21 66.96 22.54 18.3
02/15/04 17:51 65.59 32.96 29.5
02/15/04 18:21 64.22 32.92 30.9
02/15/04 18:51 62.17 31.14 30.9
02/15/04 19:21 60.8 31.1 32.4
02/15/04 19:51 60.11 26.6 27.6
02/15/04 20:21 58.04 25.6 28.5
02/15/04 20:51 56.66 25.64 30
02/15/04 21:21 55.97 26.5 31.9
02/15/04 21:51 54.58 26.04 32.9
02/15/04 22:21 53.19 24.08 31.9
02/15/04 22:51 53.19 24.44 32.4
02/15/04 23:21 53.19 24.44 32.4
02/15/04 23:51 52.49 24.84 33.8
02/16/04 00:21 51.08 23.96 34.3
02/16/04 00:51 50.38 24.02 35.3
02/16/04 01:21 49.67 24.38 36.8
02/16/04 01:51 49.67 25.34 38.3
02/16/04 02:21 48.96 25.32 39.3
02/16/04 02:51 49.67 26.86 40.8
02/16/04 03:21 48.25 26.16 41.8
02/16/04 03:51 47.53 26.7 43.9
02/16/04 04:21 46.82 26.86 45.4
02/16/04 04:51 47.53 27.78 45.9
02/16/04 05:21 46.82 27.7 47
02/16/04 05:51 46.82 27.38 46.4
02/16/04 06:21 46.82 27.7 47
02/16/04 06:51 46.1 27.28 47.5
02/16/04 07:21 48.25 27.34 43.9
02/16/04 07:51 53.19 26.16 34.8
02/16/04 08:21 60.8 25.48 25.7
02/16/04 08:51 64.91 26.8 23.5
02/16/04 09:21 66.96 25.58 20.8
02/16/04 09:51 69.02 23.14 17.5
02/16/04 10:21 69.71 23.02 17
02/16/04 10:51 71.08 22.4 15.8
02/16/04 11:21 74.53 22.78 14.3
02/16/04 11:51 75.22 20.54 12.7
02/16/04 12:21 76.62 16.52 10.2
02/16/04 12:51 78.01 17.58 10.2
02/16/04 13:21 78.71 12 7.8
02/16/04 13:51 78.01 16.66 9.8
02/16/04 14:21 77.31 17.72 10.5
02/16/04 14:51 76.62 18.88 11.3
02/16/04 15:21 76.62 21.06 12.4
02/16/04 15:51 75.92 22.52 13.5
02/16/04 16:21 73.15 23.44 15.4
02/16/04 16:51 72.46 24.08 16.2
02/16/04 17:21 69.71 24.76 18.3
02/16/04 17:51 67.65 24.6 19.5
02/16/04 18:21 66.28 25.02 20.8
02/16/04 18:51 65.59 24.44 20.8
02/16/04 19:21 64.91 23.42 20.4
02/16/04 19:51 63.54 22.74 20.8
02/16/04 20:21 62.85 21.72 20.4
02/16/04 20:51 62.85 20.66 19.5
02/16/04 21:21 63.54 21.22 19.5
02/16/04 21:51 61.48 20.12 20
02/16/04 22:21 61.48 18.04 18.3
02/16/04 22:51 59.42 17.34 19.1
02/16/04 23:21 61.48 14.1 15.4
02/16/04 23:51 61.48 11.12 13.5
02/17/04 00:21 61.48 7.18 11.3
02/17/04 00:51 60.8 7.22 11.6
02/17/04 01:21 63.54 7.16 10.5
02/17/04 01:51 61.48 10.46 13.1
02/17/04 02:21 61.48 13.5 15
02/17/04 02:51 61.48 17.54 17.9
02/17/04 03:21 59.42 16.36 18.3
02/17/04 03:51 58.04 15.72 18.7
02/17/04 04:21 60.11 16.42 17.9
02/17/04 04:51 62.17 14.04 15
02/17/04 05:21 62.17 11.66 13.5
02/17/04 05:51 62.17 14.04 15
02/17/04 06:21 60.8 14.7 16.2
02/17/04 06:51 62.85 12.86 13.9
02/17/04 07:21 64.91 11.92 12.4
02/17/04 07:51 66.28 12.98 12.4
02/17/04 08:21 68.33 13.08 11.6
02/17/04 08:51 71.08 12.3 10.2
02/17/04 09:21 71.77 12.82 10.2
02/17/04 09:51 73.84 14.4 10.2
02/17/04 10:21 74.53 14.94 10.2
02/17/04 10:51 73.15 15.38 10.9
02/17/04 11:21 72.46 17.82 12.4
02/17/04 11:51 74.53 17.88 11.6
02/17/04 12:21 76.62 18.88 11.3
02/17/04 12:51 78.01 18.26 10.5
02/17/04 13:21 78.71 17.18 9.8
02/17/04 13:51 78.71 16.48 9.5
02/17/04 14:21 79.41 16.02 9.1
02/17/04 14:51 78.01 18.26 10.5
02/17/04 15:21 78.01 19.12 10.9
02/17/04 15:51 77.31 20.82 12
02/17/04 16:21 75.92 15.08 9.8
02/17/04 16:51 74.53 14.94 10.2
02/17/04 17:21 71.77 16.52 12
02/17/04 17:51 70.39 16.2 12.4
02/17/04 18:21 68.33 17.22 13.9
02/17/04 18:51 65.59 16.16 14.6
02/17/04 19:21 64.22 16.3 15.4
02/17/04 19:51 62.85 16.36 16.2
02/17/04 20:21 61.48 16.34 17
02/17/04 20:51 60.8 16.98 17.9
02/17/04 21:21 60.11 16.92 18.3
02/17/04 21:51 60.11 18.98 20
02/17/04 22:21 59.42 18.4 20
02/17/04 22:51 59.42 19.32 20.8
02/17/04 23:21 58.04 19.58 22.1
02/17/04 23:51 57.35 19.94 23
02/18/04 00:21 58.04 21.02 23.5
02/18/04 00:51 55.97 20.14 24.4
02/18/04 01:21 55.28 20.4 25.3
02/18/04 01:51 54.58 19.82 25.3
02/18/04 02:21 54.58 20.18 25.7
02/18/04 02:51 54.58 20.18 25.7
02/18/04 03:21 53.89 19.58 25.7
02/18/04 03:51 53.89 20.04 26.2
02/18/04 04:21 53.89 20.04 26.2
02/18/04 04:51 53.89 20.04 26.2
02/18/04 05:21 53.19 20.22 27.1
02/18/04 05:51 52.49 20.06 27.6
02/18/04 06:21 52.49 20.06 27.6
02/18/04 06:51 52.49 20.06 27.6
02/18/04 07:21 56.66 21.12 24.8
02/18/04 07:51 60.11 22.26 23
02/18/04 08:21 63.54 19.74 18.3
02/18/04 08:51 68.33 18.98 15
02/18/04 09:21 70.39 17.46 13.1
02/18/04 09:51 72.46 16.28 11.6
02/18/04 10:21 73.15 14.54 10.5
02/18/04 10:51 75.22 12.86 9.1
02/18/04 11:21 77.31 10.08 7.5
02/18/04 11:51 78.01 9.7 7.2
02/18/04 12:21 79.41 7.4 6.2
02/18/04 12:51 80.12 5.68 5.6
02/18/04 13:21 80.82 1.46 4.5
02/18/04 13:51 80.82 4.98 5.3
02/18/04 14:21 78.71 2.24 5
02/18/04 14:51 78.71 10.2 7.2
02/18/04 15:21 78.01 15.94 9.5
02/18/04 15:51 77.31 10.08 7.5
02/18/04 16:21 75.22 -2.42 4.5
02/18/04 16:51 73.15 10.56 8.8
02/18/04 17:21 69.71 9.66 9.5
02/18/04 17:51 66.96 13.52 12.4
02/18/04 18:21 64.91 19.8 17.5
02/18/04 18:51 62.85 18.66 17.9
02/18/04 19:21 60.11 20.88 21.7
02/18/04 19:51 57.35 22.54 25.7
02/18/04 20:21 55.97 31.92 39.8
02/18/04 20:51 54.58 44.86 69.6
02/18/04 21:21 55.28 47.88 76.1
02/18/04 21:51 54.58 49.28 82.2
02/18/04 22:21 54.58 49.6 83.2
02/18/04 22:51 54.58 48.68 80.4
02/18/04 23:21 53.19 44.62 72.6
02/18/04 23:51 51.79 37.9 58.9
02/19/04 00:21 51.08 36.54 57.3
02/19/04 00:51 50.38 38.08 62.5
02/19/04 01:21 49.67 36.54 60.4
02/19/04 01:51 49.67 35.48 57.9
02/19/04 02:21 48.96 34.34 56.8
02/19/04 02:51 48.96 33.9 55.8
02/19/04 03:21 48.96 32.48 52.7
02/19/04 03:51 48.25 32.5 54.2
02/19/04 04:21 48.25 34.58 58.9
02/19/04 04:51 47.53 35.8 63.5
02/19/04 05:21 46.82 36.88 68.1
02/19/04 05:51 46.1 37.8 72.6
02/19/04 06:21 45.38 37.46 73.6
02/19/04 06:51 46.1 39.18 76.6
02/19/04 07:21 46.82 40.18 77.5
02/19/04 07:51 47.53 40.7 77
02/19/04 08:21 48.96 41.44 75.1
02/19/04 08:51 50.38 41.42 71.2
02/19/04 09:21 51.79 41.42 67.6
02/19/04 09:51 54.58 41.18 60.4
02/19/04 10:21 55.28 40.02 56.3
02/19/04 10:51 58.73 38.86 47.5
02/19/04 11:21 60.8 36.24 39.8
02/19/04 11:51 62.17 35.14 36.3
02/19/04 12:21 64.22 31.34 29
02/19/04 12:51 66.96 31.2 26.2
02/19/04 13:21 70.39 28.42 20.8
02/19/04 13:51 70.39 27.94 20.4
02/19/04 14:21 71.08 28.52 20.4
02/19/04 14:51 72.46 24.08 16.2
02/19/04 15:21 71.77 23.54 16.2
02/19/04 15:51 71.77 29.56 20.8
02/19/04 16:21 66.28 33.12 29
02/19/04 16:51 64.22 34.78 33.3
02/19/04 17:21 63.54 34.18 33.3
02/19/04 17:51 62.85 34.68 34.8
02/19/04 18:21 62.17 35.48 36.8
02/19/04 18:51 60.8 41.02 48
02/19/04 19:21 59.42 41.86 52.1
02/19/04 19:51 58.73 43.24 56.3
02/19/04 20:21 57.35 43.78 60.4
02/19/04 20:51 56.66 42.26 58.4
02/19/04 21:21 55.28 42.5 62
02/19/04 21:51 54.58 43.9 67.1
02/19/04 22:21 53.89 43.24 67.1
02/19/04 22:51 53.89 43.24 67.1
02/19/04 23:21 53.19 41.98 65.6
02/19/04 23:51 53.89 41.18 62
02/20/04 00:21 52.49 41.32 65.6
02/20/04 00:51 51.08 40.56 67.1
02/20/04 01:21 50.38 39.7 66.6
02/20/04 01:51 50.38 40.84 69.6
02/20/04 02:21 50.38 42.98 75.6
02/20/04 02:51 49.67 43.1 78
02/20/04 03:21 50.38 43.96 78.5
02/20/04 03:51 50.38 44.58 80.4
02/20/04 04:21 50.38 44.72 80.8
02/20/04 04:51 50.38 44.72 80.8
02/20/04 05:21 49.67 43.74 79.9
02/20/04 05:51 49.67 43.9 80.4
02/20/04 06:21 49.67 43.56 79.4
02/20/04 06:51 50.38 43.32 76.6
02/20/04 07:21 51.08 43.14 74.1
02/20/04 07:51 50.38 43.96 78.5
02/20/04 08:21 50.38 43.96 78.5
02/20/04 08:51 51.08 44.3 77.5
02/20/04 09:21 52.49 44.32 73.6
02/20/04 09:51 53.19 44.44 72.1
02/20/04 10:21 54.58 44.48 68.6
02/20/04 10:51 53.89 44.38 70.1
02/20/04 11:21 55.28 44.96 68.1
02/20/04 11:51 55.97 43.78 63.5
02/20/04 12:21 57.35 44.46 62
02/20/04 12:51 59.42 43.64 55.8
02/20/04 13:21 58.73 42.48 54.7
02/20/04 13:51 57.35 46.14 66.1
02/20/04 14:21 55.97 43.58 63
02/20/04 14:51 55.28 44.56 67.1
02/20/04 15:21 53.89 44 69.1
02/20/04 15:51 53.89 45.3 72.6
02/20/04 16:21 53.19 44.98 73.6
02/20/04 16:51 53.19 45.7 75.6
02/20/04 17:21 52.49 44.84 75.1
02/20/04 17:51 52.49 44.66 74.6
02/20/04 18:21 51.79 44.98 77.5
02/20/04 18:51 51.08 43.84 76.1
02/20/04 19:21 50.38 43.14 76.1
02/20/04 19:51 49.67 43.44 79
02/20/04 20:21 48.96 44.78 85.4
02/20/04 20:51 48.25 44.74 87.6
02/20/04 21:21 48.25 43.4 83.2
02/20/04 21:51 48.25 43.68 84.1
02/20/04 22:21 48.25 43.8 84.5
02/20/04 22:51 48.25 44.62 87.2
02/20/04 23:21 47.53 43.92 87.2
02/20/04 23:51 47.53 44.04 87.6
02/21/04 00:21 46.82 43.84 89.3
02/21/04 00:51 46.82 44.1 90.2
02/21/04 01:21 46.1 43.5 90.6
02/21/04 01:51 45.38 42.68 90.2
02/21/04 02:21 44.65 41.82 89.7
02/21/04 02:51 44.65 42.08 90.6
02/21/04 03:21 43.92 40.86 88.9
02/21/04 03:51 43.19 40.04 88.5
02/21/04 04:21 42.46 39.66 89.7
02/21/04 04:51 41.72 38.58 88.5
02/21/04 05:21 40.97 37.84 88.5
02/21/04 05:51 40.23 37.12 88.5
02/21/04 06:21 40.23 37.6 90.2
02/21/04 06:51 40.97 38.34 90.2
02/21/04 07:21 43.19 42.04 95.7
02/21/04 07:51 46.1 42.76 88
02/21/04 08:21 48.25 42.64 80.8
02/21/04 08:51 49.67 42.12 75.1
02/21/04 09:21 51.08 40.56 67.1
02/21/04 09:51 51.79 40.46 65.1
02/21/04 10:21 53.19 39 58.4
02/21/04 10:51 55.97 38.68 52.1
02/21/04 11:21 57.35 38.96 50.1
02/21/04 11:51 59.42 38.6 45.9
02/21/04 12:21 59.42 37.48 43.9
02/21/04 12:51 61.48 36.84 39.8
02/21/04 13:21 62.17 36.16 37.8
02/21/04 13:51 62.85 36.44 37.3
02/21/04 14:21 61.48 36.52 39.3
02/21/04 14:51 62.17 32.68 32.9
02/21/04 15:21 60.8 36.86 40.8
02/21/04 15:51 59.42 35.62 40.8
02/21/04 16:21 58.04 39.58 50.1
02/21/04 16:51 56.66 39.6 52.7
02/21/04 17:21 53.19 41.58 64.6
02/21/04 17:51 51.79 42.78 71.2
02/21/04 18:21 50.38 42.28 73.6
02/21/04 18:51 49.67 42.94 77.5
02/21/04 19:21 49.67 43.1 78
02/21/04 19:51 48.96 42.88 79.4
02/21/04 20:21 48.25 42.8 81.3
02/21/04 20:51 48.25 42.96 81.8
02/21/04 21:21 47.53 42.98 84.1
02/21/04 21:51 47.53 43.54 85.9
02/21/04 22:21 48.25 44.08 85.4
02/21/04 22:51 48.25 44.24 85.9
02/21/04 23:21 48.25 44.08 85.4
02/21/04 23:51 48.25 43.96 85
02/22/04 00:21 48.25 43.96 85
02/22/04 00:51 48.25 44.08 85.4
02/22/04 01:21 48.25 43.96 85
02/22/04 01:51 48.96 44.5 84.5
02/22/04 02:21 48.96 44.94 85.9
02/22/04 02:51 48.96 45.18 86.7
02/22/04 03:21 48.25 44.08 85.4
02/22/04 03:51 48.25 44.08 85.4
02/22/04 04:21 48.96 44.5 84.5
02/22/04 04:51 48.96 44.38 84.1
02/22/04 05:21 48.25 44.24 85.9
02/22/04 05:51 48.25 44.74 87.6
02/22/04 06:21 48.96 45.32 87.2
02/22/04 06:51 48.96 45.18 86.7
02/22/04 07:21 48.96 45.06 86.3
02/22/04 07:51 50.38 45.6 83.6
02/22/04 08:21 51.08 45.28 80.4
02/22/04 08:51 52.49 45.5 77
02/22/04 09:21 53.89 45.48 73.1
02/22/04 09:51 55.28 45.72 70.1
02/22/04 10:21 55.28 45.94 70.7
02/22/04 10:51 55.97 45.62 68.1
02/22/04 11:21 56.66 46.08 67.6
02/22/04 11:51 58.04 45.74 63.5
02/22/04 12:21 58.04 44.9 61.5
02/22/04 12:51 58.04 44.9 61.5
02/22/04 13:21 58.04 44.9 61.5
02/22/04 13:51 57.35 44.88 63
02/22/04 14:21 55.97 47.3 72.6
02/22/04 14:51 54.58 48.68 80.4
02/22/04 15:21 52.49 50.52 93
02/22/04 15:51 51.79 50.9 96.8
02/22/04 16:21 51.08 50.42 97.6
02/22/04 16:51 51.08 50.7 98.6
02/22/04 17:21 51.08 50.62 98.3
02/22/04 17:51 51.08 50.7 98.6
02/22/04 18:21 51.08 50.9 99.3
02/22/04 18:51 51.79 51.6 99.3
02/22/04 19:21 51.79 51.6 99.3
02/22/04 19:51 51.79 51.6 99.3
02/22/04 20:21 52.49 52.3 99.3
02/22/04 20:51 52.49 52.38 99.6
02/22/04 21:21 51.79 51.4 98.6
02/22/04 21:51 49.67 49.22 98.3
02/22/04 22:21 47.53 47.16 98.6
02/22/04 22:51 46.82 46.18 97.6
02/22/04 23:21 46.1 45.72 98.6
02/22/04 23:51 45.38 45.12 99
02/23/04 00:21 45.38 45.12 99
02/23/04 00:51 44.65 44.46 99.3
02/23/04 01:21 44.65 44.46 99.3
02/23/04 01:51 44.65 44.46 99.3
02/23/04 02:21 44.65 44.38 99
02/23/04 02:51 44.65 44.46 99.3
02/23/04 03:21 45.38 45 98.6
02/23/04 03:51 44.65 44.28 98.6
02/23/04 04:21 44.65 44.38 99
02/23/04 04:51 44.65 44.28 98.6
02/23/04 05:21 44.65 44.28 98.6
02/23/04 05:51 44.65 44.2 98.3
02/23/04 06:21 44.65 44.28 98.6
02/23/04 06:51 45.38 45 98.6
02/23/04 07:21 45.38 45 98.6
02/23/04 07:51 47.53 46.98 97.9
02/23/04 08:21 48.96 47.78 95.7
02/23/04 08:51 50.38 47.74 90.6
02/23/04 09:21 51.08 47.92 88.9
02/23/04 09:51 52.49 47.38 82.7
02/23/04 10:21 53.19 44.8 73.1
02/23/04 10:51 55.28 45.34 69.1
02/23/04 11:21 55.28 44.76 67.6
02/23/04 11:51 55.97 44.44 65.1
02/23/04 12:21 54.58 40.52 58.9
02/23/04 12:51 48.25 45.26 89.3
02/23/04 13:21 46.82 44.44 91.4
02/23/04 13:51 47.53 45.16 91.4
02/23/04 14:21 48.25 45.98 91.8
02/23/04 14:51 51.08 44.64 78.5
02/23/04 15:21 52.49 41.72 66.6
02/23/04 15:51 54.58 39.6 56.8
02/23/04 16:21 53.89 39.44 57.9
02/23/04 16:51 53.89 41.18 62
02/23/04 17:21 51.79 38.8 61
02/23/04 17:51 50.38 40.28 68.1
02/23/04 18:21 49.67 41.06 72.1
02/23/04 18:51 48.96 41.6 75.6
02/23/04 19:21 48.25 42.18 79.4
02/23/04 19:51 47.53 42.82 83.6
02/23/04 20:21 46.1 42.24 86.3
02/23/04 20:51 46.1 41.98 85.4
02/23/04 21:21 46.1 42.12 85.9
02/23/04 21:51 45.38 42.04 88
02/23/04 22:21 43.92 41.36 90.6
02/23/04 22:51 43.19 41.08 92.2
02/23/04 23:21 42.46 40.46 92.6
02/23/04 23:51 42.46 40.8 93.8
02/24/04 00:21 41.72 40.18 94.2
02/24/04 00:51 40.97 39.44 94.2
02/24/04 01:21 40.97 39.66 95
02/24/04 01:51 40.23 38.92 95
02/24/04 02:21 40.23 39.2 96.1
02/24/04 02:51 39.48 38.46 96.1
02/24/04 03:21 39.48 38.46 96.1
02/24/04 03:51 39.48 38.56 96.5
02/24/04 04:21 38.72 37.5 95.3
02/24/04 04:51 37.97 36.74 95.3
02/24/04 05:21 37.97 36.86 95.7
02/24/04 05:51 37.97 37.14 96.8
02/24/04 06:21 37.97 37.14 96.8
02/24/04 06:51 37.97 37.14 96.8
02/24/04 07:21 40.23 39.78 98.3
02/24/04 07:51 44.65 43.08 94.2
02/24/04 08:21 48.25 41.9 78.5
02/24/04 08:51 50.38 41.6 71.7
02/24/04 09:21 51.79 38.8 61
02/24/04 09:51 53.19 37.84 55.8
02/24/04 10:21 54.58 38.62 54.7
02/24/04 10:51 56.66 38.32 50.1
02/24/04 11:21 58.04 37.62 46.4
02/24/04 11:51 59.42 38.32 45.4
02/24/04 12:21 60.8 36.24 39.8
02/24/04 12:51 61.48 35.88 38.3
02/24/04 13:21 63.54 34.18 33.3
02/24/04 13:51 64.22 35.9 34.8
02/24/04 14:21 63.54 36 35.8
02/24/04 14:51 64.22 37.64 37.3
02/24/04 15:21 64.91 38.92 38.3
02/24/04 15:51 63.54 37.7 38.3
02/24/04 16:21 62.85 40 42.9
02/24/04 16:51 61.48 41.36 47.5
02/24/04 17:21 60.11 42.5 52.1
02/24/04 17:51 58.04 44.68 61
02/24/04 18:21 56.66 45.5 66.1
02/24/04 18:51 55.28 45.52 69.6
02/24/04 19:21 54.58 45.78 72.1
02/24/04 19:51 53.19 45.34 74.6
02/24/04 20:21 52.49 45.5 77
02/24/04 20:51 51.79 45.62 79.4
02/24/04 21:21 51.08 45.72 81.8
02/24/04 21:51 50.38 45.04 81.8
02/24/04 22:21 49.67 44.64 82.7
02/24/04 22:51 48.96 44.5 84.5
02/24/04 23:21 48.25 44.48 86.7
02/24/04 23:51 46.82 43.72 88.9
02/25/04 00:21 46.1 43.24 89.7
02/25/04 00:51 46.1 43.5 90.6
02/25/04 01:21 45.38 42.68 90.2
02/25/04 01:51 44.65 42.3 91.4
02/25/04 02:21 43.92 42.04 93
02/25/04 02:51 43.92 41.92 92.6
02/25/04 03:21 43.92 42.04 93
02/25/04 03:51 43.19 41.42 93.4
02/25/04 04:21 42.46 40.46 92.6
02/25/04 04:51 41.72 40.06 93.8
02/25/04 05:21 42.46 41.12 95
02/25/04 05:51 41.72 40.06 93.8
02/25/04 06:21 41.72 40.18 94.2
02/25/04 06:51 41.72 40.4 95
02/25/04 07:21 43.92 43 96.5
02/25/04 07:51 51.08 44.64 78.5
02/25/04 08:21 53.89 45.12 72.1
02/25/04 08:51 56.66 44.02 62.5
02/25/04 09:21 58.73 43 55.8
02/25/04 09:51 60.8 41.8 49.5
02/25/04 10:21 62.17 41.1 45.9
02/25/04 10:51 62.85 40.58 43.9
02/25/04 11:21 64.91 39.58 39.3
02/25/04 11:51 66.28 39.46 37.3
02/25/04 12:21 68.33 40.6 36.3
02/25/04 12:51 69.02 38.68 32.9
02/25/04 13:21 69.71 38.08 31.4
02/25/04 13:51 70.39 40.56 33.8
02/25/04 14:21 69.02 38.98 33.3
02/25/04 14:51 69.71 36.92 30
02/25/04 15:21 69.02 37.88 31.9
02/25/04 15:51 68.33 36.48 30.9
02/25/04 16:21 66.96 37.18 33.3
02/25/04 16:51 64.91 37.56 36.3
02/25/04 17:21 63.54 39 40.3
02/25/04 17:51 60.8 40.46 47
02/25/04 18:21 58.73 40.72 51.1
02/25/04 18:51 57.35 40.74 53.7
02/25/04 19:21 56.66 41.3 56.3
02/25/04 19:51 54.58 41.64 61.5
02/25/04 20:21 53.19 41.78 65.1
02/25/04 20:51 52.49 42.1 67.6
02/25/04 21:21 51.79 42.36 70.1
02/25/04 21:51 50.38 42.28 73.6
02/25/04 22:21 49.67 42.12 75.1
02/25/04 22:51 49.67 41.42 73.1
02/25/04 23:21 49.67 41.6 73.6
02/25/04 23:51 49.67 42.46 76.1
02/26/04 00:21 48.25 42.18 79.4
02/26/04 00:51 46.82 41.24 80.8
02/26/04 01:21 46.1 41.42 83.6
02/26/04 01:51 46.1 41.7 84.5
02/26/04 02:21 45.38 41.42 85.9
02/26/04 02:51 44.65 40.94 86.7
02/26/04 03:21 43.92 40.38 87.2
02/26/04 03:51 43.92 40.38 87.2
02/26/04 04:21 43.92 40.6 88
02/26/04 04:51 42.46 39.3 88.5
02/26/04 05:21 41.72 39.18 90.6
02/26/04 05:51 41.72 39.3 91
02/26/04 06:21 41.72 39.3 91
02/26/04 06:51 41.72 39.18 90.6
02/26/04 07:21 44.65 41.32 88
02/26/04 07:51 49.67 41.6 73.6
02/26/04 08:21 53.19 40.54 62
02/26/04 08:51 55.28 41.18 58.9
02/26/04 09:21 57.35 42.68 57.9
02/26/04 09:51 59.42 43.42 55.3
02/26/04 10:21 60.11 42.5 52.1
02/26/04 10:51 62.85 43.44 49
02/26/04 11:21 64.22 42.4 44.9
02/26/04 11:51 66.28 43.08 42.9
02/26/04 12:21 66.96 43.02 41.8
02/26/04 12:51 68.33 43.3 40.3
02/26/04 13:21 68.33 43.3 40.3
02/26/04 13:51 69.02 45.18 42.3
02/26/04 14:21 68.33 46.42 45.4
02/26/04 14:51 68.33 45.84 44.4
02/26/04 15:21 68.33 46.42 45.4
02/26/04 15:51 67.65 45.22 44.4
02/26/04 16:21 66.96 46.38 47.5
02/26/04 16:51 65.59 46.52 50.1
02/26/04 17:21 63.54 47.48 55.8
02/26/04 17:51 61.48 48.58 62.5
02/26/04 18:21 60.11 49.76 68.6
02/26/04 18:51 59.42 51 73.6
02/26/04 19:21 58.04 50.38 75.6
02/26/04 19:51 57.35 50.38 77.5
02/26/04 20:21 55.97 50.62 82.2
02/26/04 20:51 55.28 50.98 85.4
02/26/04 21:21 54.58 51.26 88.5
02/26/04 21:51 53.19 50.86 91.8
02/26/04 22:21 53.19 51.1 92.6
02/26/04 22:51 53.19 51.22 93
02/26/04 23:21 53.19 50.98 92.2
02/26/04 23:51 53.19 51.22 93
02/27/04 00:21 53.19 51.22 93
02/27/04 00:51 53.19 51.34 93.4
02/27/04 01:21 53.19 50.98 92.2
02/27/04 01:51 53.19 50.98 92.2
02/27/04 02:21 53.19 50.24 89.7
02/27/04 02:51 52.49 49.94 91
02/27/04 03:21 52.49 50.06 91.4
02/27/04 03:51 52.49 49.82 90.6
02/27/04 04:21 52.49 49.82 90.6
02/27/04 04:51 51.79 49.48 91.8
02/27/04 05:21 51.79 49.02 90.2
02/27/04 05:51 51.08 47.54 87.6
02/27/04 06:21 49.67 46.02 87.2
02/27/04 06:51 49.67 45.88 86.7
02/27/04 07:21 49.67 45.48 85.4
02/27/04 07:51 51.08 44.48 78
02/27/04 08:21 51.79 40.66 65.6
02/27/04 08:51 53.19 41.14 63.5
02/27/04 09:21 54.58 41.84 62
02/27/04 09:51 54.58 39.6 56.8
02/27/04 10:21 55.97 39.2 53.2
02/27/04 10:51 55.28 40.02 56.3
02/27/04 11:21 57.35 34.38 41.8
02/27/04 11:51 57.35 35.32 43.4
02/27/04 12:21 58.73 32.1 36.3
02/27/04 12:51 59.42 32.02 35.3
02/27/04 13:21 59.42 33.04 36.8
02/27/04 13:51 58.73 34.7 40.3
02/27/04 14:21 59.42 34.04 38.3
02/27/04 14:51 57.35 34.38 41.8
02/27/04 15:21 57.35 32.2 38.3
02/27/04 15:51 58.73 33.42 38.3
02/27/04 16:21 55.97 35.46 45.9
02/27/04 16:51 56.66 34.04 42.3
02/27/04 17:21 54.58 35.58 48.5
02/27/04 17:51 53.19 37.34 54.7
02/27/04 18:21 51.79 39 61.5
02/27/04 18:51 50.38 38.92 64.6
02/27/04 19:21 49.67 39.78 68.6
02/27/04 19:51 48.96 40.06 71.2
02/27/04 20:21 48.25 39.88 72.6
02/27/04 20:51 47.53 37.92 69.1
02/27/04 21:21 46.82 38.5 72.6
02/27/04 21:51 46.1 38.66 75.1
02/27/04 22:21 46.1 39 76.1
02/27/04 22:51 45.38 38.6 77
02/27/04 23:21 44.65 38.06 77.5
02/27/04 23:51 44.65 37.26 75.1
02/28/04 00:21 44.65 35.34 69.6
02/28/04 00:51 43.92 35.04 70.7
02/28/04 01:21 43.92 35.72 72.6
02/28/04 01:51 43.19 34.7 71.7
02/28/04 02:21 43.19 34.34 70.7
02/28/04 02:51 42.46 33.98 71.7
02/28/04 03:21 41.72 33.28 71.7
02/28/04 03:51 40.97 33.54 74.6
02/28/04 04:21 40.23 33.48 76.6
02/28/04 04:51 40.23 33.32 76.1
02/28/04 05:21 38.72 32.64 78.5
02/28/04 05:51 37.97 32.48 80.4
02/28/04 06:21 37.2 32.18 81.8
02/28/04 06:51 37.97 32.76 81.3
02/28/04 07:21 41.72 34.1 74.1
02/28/04 07:51 46.1 34.24 63
02/28/04 08:21 48.25 33.88 57.3
02/28/04 08:51 50.38 33.02 51.1
02/28/04 09:21 52.49 32.88 47
02/28/04 09:51 53.19 32.38 44.9
02/28/04 10:21 54.58 31.88 41.8
02/28/04 10:51 55.97 30.32 37.3
02/28/04 11:21 57.35 30.54 35.8
02/28/04 11:51 58.04 28.7 32.4
02/28/04 12:21 59.42 29.9 32.4
02/28/04 12:51 59.42 30.28 32.9
02/28/04 13:21 59.42 28.34 30.4
02/28/04 13:51 60.11 27.8 29
02/28/04 14:21 59.42 28.74 30.9
02/28/04 14:51 59.42 31.3 34.3
02/28/04 15:21 59.42 33.04 36.8
02/28/04 15:51 58.04 33.14 38.8
02/28/04 16:21 58.04 34.7 41.3
02/28/04 16:51 55.97 35.18 45.4
02/28/04 17:21 54.58 36.4 50.1
02/28/04 17:51 52.49 37.4 56.3
02/28/04 18:21 51.79 39 61.5
02/28/04 18:51 50.38 39.12 65.1
02/28/04 19:21 49.67 39.42 67.6
02/28/04 19:51 48.96 39.48 69.6
02/28/04 20:21 48.25 39.38 71.2
02/28/04 20:51 47.53 38.88 71.7
02/28/04 21:21 46.82 38.5 72.6
02/28/04 21:51 46.82 39.2 74.6
02/28/04 22:21 46.1 39 76.1
02/28/04 22:51 45.38 38.78 77.5
02/28/04 23:21 44.65 38.24 78
02/28/04 23:51 44.65 38.68 79.4
02/29/04 00:21 44.65 38.84 79.9
02/29/04 00:51 43.92 38.42 80.8
02/29/04 01:21 42.46 37.58 82.7
02/29/04 01:51 41.72 37.4 84.5
02/29/04 02:21 40.97 36.56 84.1
02/29/04 02:51 40.23 36.22 85.4
02/29/04 03:21 40.23 36.48 86.3
02/29/04 03:51 40.23 36.6 86.7
02/29/04 04:21 39.48 36.22 88
02/29/04 04:51 38.72 35.62 88.5
02/29/04 05:21 39.48 36.6 89.3
02/29/04 05:51 37.97 35 88.9
02/29/04 06:21 38.72 35.96 89.7
02/29/04 06:51 38.72 35.86 89.3
02/29/04 07:21 42.46 37 80.8
02/29/04 07:51 46.82 35.74 65.1
02/29/04 08:21 50.38 36.36 58.4
02/29/04 08:51 53.19 34.04 48
02/29/04 09:21 55.28 34.56 45.4
02/29/04 09:51 56.66 33.14 40.8
02/29/04 10:21 58.73 29.3 32.4
02/29/04 10:51 60.11 29.74 31.4
02/29/04 11:21 60.8 28.8 29.5
02/29/04 11:51 60.11 28.22 29.5
02/29/04 12:21 61.48 28.98 29
02/29/04 12:51 62.85 28.96 27.6
02/29/04 13:21 64.22 29.32 26.7
02/29/04 13:51 64.91 28.98 25.7
02/29/04 14:21 63.54 33.88 32.9
02/29/04 14:51 62.85 32.9 32.4
02/29/04 15:21 62.85 35.74 36.3
02/29/04 15:51 62.17 34.8 35.8
02/29/04 16:21 61.48 32.76 33.8
02/29/04 16:51 60.11 31.18 33.3
02/29/04 17:21 58.04 29.36 33.3
02/29/04 17:51 56.66 31.58 38.3
02/29/04 18:21 55.28 34.84 45.9
02/29/04 18:51 53.89 36.26 51.1
02/29/04 19:21 53.19 38.52 57.3
02/29/04 19:51 51.79 38.32 59.9
02/29/04 20:21 51.08 38.34 61.5
02/29/04 20:51 50.38 38.48 63.5
02/29/04 21:21 49.67 39.22 67.1
02/29/04 21:51 48.96 39.3 69.1
02/29/04 22:21 48.25 38.98 70.1
02/29/04 22:51 48.25 39.56 71.7
02/29/04 23:21 48.25 39.38 71.2
02/29/04 23:51 46.82 38.84 73.6